createdAt,value
2022-12-09T00:02:11.454Z,-1.38
2022-12-09T00:04:38.442Z,-1.42
2022-12-09T00:07:05.191Z,-1.46
2022-12-09T00:09:33.938Z,-1.51
2022-12-09T00:12:04.022Z,-1.54
2022-12-09T00:14:30.922Z,-1.57
2022-12-09T00:16:58.163Z,-1.63
2022-12-09T00:19:25.029Z,-1.70
2022-12-09T00:21:54.554Z,-1.73
2022-12-09T00:24:21.353Z,-1.79
2022-12-09T00:26:47.998Z,-1.79
2022-12-09T00:29:14.785Z,-1.85
2022-12-09T00:31:41.586Z,-1.88
2022-12-09T00:34:12.020Z,-1.88
2022-12-09T00:36:39.054Z,-1.98
2022-12-09T00:39:05.926Z,-2.02
2022-12-09T00:41:33.034Z,-1.97
2022-12-09T00:43:59.904Z,-2.06
2022-12-09T00:46:26.676Z,-2.11
2022-12-09T00:48:53.388Z,-2.15
2022-12-09T00:51:22.406Z,-2.17
2022-12-09T00:53:53.836Z,-2.18
2022-12-09T00:56:23.855Z,-2.13
2022-12-09T00:58:50.675Z,-2.22
2022-12-09T01:01:17.517Z,-2.31
2022-12-09T01:03:44.359Z,-2.32
2022-12-09T01:06:14.749Z,-2.34
2022-12-09T01:08:42.906Z,-2.38
2022-12-09T01:11:17.871Z,-2.42
2022-12-09T01:13:44.707Z,-2.39
2022-12-09T01:16:17.344Z,-2.40
2022-12-09T01:18:45.193Z,-2.46
2022-12-09T01:21:12.131Z,-2.52
2022-12-09T01:23:38.835Z,-2.58
2022-12-09T01:26:06.741Z,-2.59
2022-12-09T01:28:37.932Z,-2.53
2022-12-09T01:31:19.412Z,-2.60
2022-12-09T01:33:46.332Z,-2.69
2022-12-09T01:36:16.895Z,-2.73
2022-12-09T01:38:44.283Z,-2.77
2022-12-09T01:41:10.998Z,-2.80
2022-12-09T01:43:39.361Z,-2.79
2022-12-09T01:46:06.447Z,-2.77
2022-12-09T01:48:36.567Z,-2.86
2022-12-09T01:51:10.155Z,-2.85
2022-12-09T01:53:39.662Z,-2.71
2022-12-09T01:56:10.868Z,-2.57
2022-12-09T01:58:37.571Z,-2.58
2022-12-09T02:01:04.686Z,-2.73
2022-12-09T02:03:31.827Z,-2.82
2022-12-09T02:05:58.891Z,-2.89
2022-12-09T02:08:25.737Z,-2.91
2022-12-09T02:11:14.442Z,-2.98
2022-12-09T02:13:55.350Z,-3.06
2022-12-09T02:16:25.557Z,-3.09
2022-12-09T02:19:05.197Z,-3.12
2022-12-09T02:21:34.659Z,-3.13
2022-12-09T02:24:09.005Z,-3.07
2022-12-09T02:27:21.228Z,-3.04
2022-12-09T02:30:03.192Z,-3.04
2022-12-09T02:33:07.924Z,-3.01
2022-12-09T02:35:53.504Z,-2.92
2022-12-09T02:38:26.042Z,-2.85
2022-12-09T02:41:00.377Z,-2.79
2022-12-09T02:43:28.523Z,-2.77
2022-12-09T02:45:56.072Z,-2.74
2022-12-09T02:48:25.812Z,-2.73
2022-12-09T02:50:53.794Z,-2.69
2022-12-09T02:53:21.592Z,-2.74
2022-12-09T02:55:49.248Z,-2.74
2022-12-09T02:58:16.006Z,-2.72
2022-12-09T03:00:43.065Z,-2.67
2022-12-09T03:03:16.634Z,-2.62
2022-12-09T03:05:56.557Z,-2.53
2022-12-09T03:08:35.515Z,-2.51
2022-12-09T03:11:06.893Z,-2.44
2022-12-09T03:13:39.999Z,-2.49
2022-12-09T03:16:31.105Z,-2.44
2022-12-09T03:19:06.583Z,-2.48
2022-12-09T03:21:36.656Z,-2.49
2022-12-09T03:24:08.023Z,-2.47
2022-12-09T03:26:35.851Z,-2.30
2022-12-09T03:29:06.067Z,-2.39
2022-12-09T03:31:35.064Z,-2.37
2022-12-09T03:34:04.044Z,-2.38
2022-12-09T03:36:37.871Z,-2.45
2022-12-09T03:39:07.637Z,-2.50
2022-12-09T03:41:34.878Z,-2.64
2022-12-09T03:44:13.225Z,-2.63
2022-12-09T03:46:40.376Z,-2.62
2022-12-09T03:49:07.403Z,-2.67
2022-12-09T03:51:49.316Z,-2.76
2022-12-09T03:54:34.022Z,-2.63
2022-12-09T03:57:01.346Z,-2.70
2022-12-09T03:59:31.335Z,-2.42
2022-12-09T04:01:58.243Z,-2.66
2022-12-09T04:04:25.257Z,-2.43
2022-12-09T04:06:53.115Z,-2.59
2022-12-09T04:09:19.976Z,-2.37
2022-12-09T04:11:46.957Z,-2.56
2022-12-09T04:14:15.764Z,-2.59
2022-12-09T04:16:43.558Z,-2.60
2022-12-09T04:19:10.942Z,-2.58
2022-12-09T04:21:37.943Z,-2.66
2022-12-09T04:24:04.911Z,-2.54
2022-12-09T04:26:31.798Z,-2.57
2022-12-09T04:28:58.664Z,-2.58
2022-12-09T04:31:25.795Z,-2.43
2022-12-09T04:33:53.627Z,-2.40
2022-12-09T04:36:21.183Z,-2.47
2022-12-09T04:38:48.618Z,-2.45
2022-12-09T04:41:16.311Z,-2.47
2022-12-09T04:43:43.275Z,-2.40
2022-12-09T04:46:16.121Z,-2.37
2022-12-09T04:48:43.753Z,-2.32
2022-12-09T04:51:12.094Z,-2.32
2022-12-09T04:53:38.862Z,-2.35
2022-12-09T04:56:09.238Z,-2.40
2022-12-09T04:58:36.129Z,-2.40
2022-12-09T05:01:10.603Z,-2.10
2022-12-09T05:03:37.940Z,-2.32
2022-12-09T05:06:06.483Z,-2.13
2022-12-09T05:08:33.579Z,-2.13
2022-12-09T05:11:00.832Z,-1.95
2022-12-09T05:13:28.052Z,-2.16
2022-12-09T05:16:13.912Z,-2.19
2022-12-09T05:18:43.199Z,-2.24
2022-12-09T05:21:13.148Z,-2.11
2022-12-09T05:23:40.066Z,-2.08
2022-12-09T05:26:08.770Z,-2.20
2022-12-09T05:28:36.133Z,-2.18
2022-12-09T05:31:04.841Z,-2.13
2022-12-09T05:33:32.000Z,-2.12
2022-12-09T05:35:58.997Z,-2.00
2022-12-09T05:38:26.352Z,-1.94
2022-12-09T05:40:53.712Z,-1.99
2022-12-09T05:43:20.596Z,-1.97
2022-12-09T05:45:47.905Z,-2.02
2022-12-09T05:48:14.911Z,-2.06
2022-12-09T05:50:41.735Z,-1.96
2022-12-09T05:53:08.500Z,-1.83
2022-12-09T05:55:35.714Z,-1.98
2022-12-09T05:58:02.776Z,-2.05
2022-12-09T06:00:29.755Z,-2.02
2022-12-09T06:02:56.854Z,-1.92
2022-12-09T06:05:23.873Z,-1.95
2022-12-09T06:07:50.863Z,-1.78
2022-12-09T06:10:18.347Z,-1.87
2022-12-09T06:12:45.467Z,-1.88
2022-12-09T06:15:15.633Z,-1.90
2022-12-09T06:17:45.512Z,-1.86
2022-12-09T06:20:13.268Z,-1.85
2022-12-09T06:22:40.225Z,-1.91
2022-12-09T06:25:07.490Z,-1.91
2022-12-09T06:27:34.431Z,-1.87
2022-12-09T06:30:01.268Z,-1.87
2022-12-09T06:32:28.057Z,-1.84
2022-12-09T06:34:55.154Z,-1.78
2022-12-09T06:37:21.852Z,-1.81
2022-12-09T06:39:48.636Z,-1.77
2022-12-09T06:42:15.639Z,-1.76
2022-12-09T06:44:42.599Z,-1.75
2022-12-09T06:47:09.849Z,-1.71
2022-12-09T06:49:36.940Z,-1.64
2022-12-09T06:52:03.959Z,-1.70
2022-12-09T06:54:30.944Z,-1.67
2022-12-09T06:56:57.816Z,-1.66
2022-12-09T06:59:25.423Z,-1.73
2022-12-09T07:01:52.584Z,-1.73
2022-12-09T07:04:19.651Z,-1.75
2022-12-09T07:06:46.972Z,-1.72
2022-12-09T07:09:16.593Z,-1.72
2022-12-09T07:11:46.335Z,-1.74
2022-12-09T07:14:14.744Z,-1.66
2022-12-09T07:16:42.128Z,-1.71
2022-12-09T07:19:16.296Z,-1.66
2022-12-09T07:21:43.156Z,-1.70
2022-12-09T07:24:11.936Z,-1.68
2022-12-09T07:26:38.932Z,-1.64
2022-12-09T07:29:06.619Z,-1.63
2022-12-09T07:31:34.556Z,-1.59
2022-12-09T07:34:01.924Z,-1.59
2022-12-09T07:36:30.344Z,-1.54
2022-12-09T07:39:06.132Z,-1.52
2022-12-09T07:41:33.218Z,-1.49
2022-12-09T07:44:00.480Z,-1.46
2022-12-09T07:46:30.326Z,-1.44
2022-12-09T07:48:58.354Z,-1.42
2022-12-09T07:51:25.843Z,-1.40
2022-12-09T07:53:53.657Z,-1.30
2022-12-09T07:56:21.049Z,-1.24
2022-12-09T07:58:48.788Z,-1.29
2022-12-09T08:01:18.221Z,-1.31
2022-12-09T08:03:46.467Z,-1.29
2022-12-09T08:06:16.121Z,-1.26
2022-12-09T08:08:44.283Z,-1.28
2022-12-09T08:11:21.781Z,-1.26
2022-12-09T08:13:49.171Z,-1.19
2022-12-09T08:16:18.759Z,-1.20
2022-12-09T08:18:47.129Z,-1.14
2022-12-09T08:21:17.005Z,-1.08
2022-12-09T08:23:44.953Z,-1.08
2022-12-09T08:26:13.610Z,-1.06
2022-12-09T08:28:41.069Z,-1.01
2022-12-09T08:31:09.713Z,-0.78
2022-12-09T08:33:37.373Z,-0.75
2022-12-09T08:36:07.742Z,-0.74
2022-12-09T08:38:37.109Z,-0.75
2022-12-09T08:41:09.891Z,-0.79
2022-12-09T08:43:36.867Z,-0.81
2022-12-09T08:46:04.018Z,-0.76
2022-12-09T08:48:30.854Z,-0.76
2022-12-09T08:50:58.025Z,-0.81
2022-12-09T08:53:24.679Z,-0.76
2022-12-09T08:55:51.555Z,-0.73
2022-12-09T08:58:18.640Z,-0.69
2022-12-09T09:00:45.477Z,-0.68
2022-12-09T09:03:12.478Z,-0.61
2022-12-09T09:05:40.377Z,-0.57
2022-12-09T09:08:07.436Z,-0.53
2022-12-09T09:10:34.422Z,-0.50
2022-12-09T09:13:01.161Z,-0.54
2022-12-09T09:15:28.308Z,-0.52
2022-12-09T09:17:55.064Z,-0.48
2022-12-09T09:20:21.869Z,-0.45
2022-12-09T09:22:49.242Z,-0.45
2022-12-09T09:25:16.297Z,-0.47
2022-12-09T09:27:43.386Z,-0.51
2022-12-09T09:30:10.714Z,-0.50
2022-12-09T09:32:38.016Z,-0.53
2022-12-09T09:35:05.379Z,-0.51
2022-12-09T09:37:32.316Z,-0.54
2022-12-09T09:39:59.081Z,-0.58
2022-12-09T09:42:34.472Z,-0.50
2022-12-09T09:45:04.736Z,-0.40
2022-12-09T09:47:44.060Z,-0.38
2022-12-09T09:50:38.721Z,-0.40
2022-12-09T09:53:26.713Z,-0.35
2022-12-09T09:56:00.027Z,-0.44
2022-12-09T09:58:36.636Z,-0.36
2022-12-09T10:01:07.795Z,-0.32
2022-12-09T10:03:56.515Z,-0.06
2022-12-09T10:06:48.797Z,0.04
2022-12-09T10:09:22.000Z,-0.02
2022-12-09T10:12:02.011Z,-0.12
2022-12-09T10:14:40.986Z,-0.06
2022-12-09T10:17:29.146Z,0.00
2022-12-09T10:20:03.624Z,-0.02
2022-12-09T10:22:54.062Z,0.03
2022-12-09T10:25:26.058Z,0.11
2022-12-09T10:27:55.506Z,0.03
2022-12-09T10:30:22.458Z,-0.07
2022-12-09T10:32:49.452Z,-0.20
2022-12-09T10:35:19.870Z,-0.24
2022-12-09T10:37:48.551Z,-0.33
2022-12-09T10:40:38.268Z,-0.29
2022-12-09T10:43:44.208Z,-0.21
2022-12-09T10:46:20.070Z,-0.17
2022-12-09T10:48:49.029Z,-0.12
2022-12-09T10:51:25.151Z,-0.04
2022-12-09T10:54:21.038Z,0.05
2022-12-09T10:57:05.170Z,0.31
2022-12-09T10:59:32.782Z,0.40
2022-12-09T11:02:11.507Z,0.13
2022-12-09T11:04:42.929Z,0.02
2022-12-09T11:07:13.034Z,-0.02
2022-12-09T11:09:46.067Z,-0.04
2022-12-09T11:12:30.918Z,-0.03
2022-12-09T11:15:01.364Z,-0.03
2022-12-09T11:17:33.294Z,-0.07
2022-12-09T11:20:07.151Z,-0.04
2022-12-09T11:22:42.302Z,0.14
2022-12-09T11:25:12.280Z,0.01
2022-12-09T11:27:43.333Z,0.02
2022-12-09T11:30:20.081Z,0.06
2022-12-09T11:32:53.791Z,0.11
2022-12-09T11:35:34.866Z,0.18
2022-12-09T11:38:21.620Z,0.24
2022-12-09T11:41:13.615Z,0.10
2022-12-09T11:43:49.622Z,0.17
2022-12-09T11:46:29.380Z,0.10
2022-12-09T11:49:22.538Z,0.18
2022-12-09T11:52:01.340Z,0.32
2022-12-09T11:54:31.451Z,0.29
2022-12-09T11:56:59.262Z,0.36
2022-12-09T11:59:48.884Z,0.42
2022-12-09T12:02:38.844Z,0.33
2022-12-09T12:05:30.129Z,0.43
2022-12-09T12:08:03.648Z,0.43
2022-12-09T12:10:35.831Z,0.48
2022-12-09T12:13:09.444Z,0.65
2022-12-09T12:15:48.615Z,0.57
2022-12-09T12:18:21.319Z,0.36
2022-12-09T12:21:06.300Z,0.31
2022-12-09T12:24:04.226Z,0.30
2022-12-09T12:27:03.186Z,0.27
2022-12-09T12:30:08.329Z,0.24
2022-12-09T12:32:39.089Z,0.08
2022-12-09T12:35:21.368Z,0.05
2022-12-09T12:38:16.241Z,0.00
2022-12-09T12:41:01.674Z,0.00
2022-12-09T12:44:19.473Z,-0.03
2022-12-09T12:47:06.300Z,0.06
2022-12-09T12:49:47.738Z,0.16
2022-12-09T12:52:55.106Z,0.13
2022-12-09T12:55:49.629Z,0.17
2022-12-09T12:58:33.430Z,0.19
2022-12-09T13:01:06.643Z,0.19
2022-12-09T13:04:07.713Z,0.12
2022-12-09T13:06:40.907Z,0.07
2022-12-09T13:09:23.033Z,-0.05
2022-12-09T13:11:56.322Z,-0.14
2022-12-09T13:14:39.892Z,-0.18
2022-12-09T13:17:08.691Z,-0.16
2022-12-09T13:19:41.078Z,-0.12
2022-12-09T13:22:14.395Z,-0.02
2022-12-09T13:24:59.943Z,0.22
2022-12-09T13:27:34.982Z,0.00
2022-12-09T13:30:06.454Z,0.03
2022-12-09T13:32:59.416Z,0.11
2022-12-09T13:35:37.519Z,0.03
2022-12-09T13:38:04.203Z,0.01
2022-12-09T13:40:36.782Z,-0.08
2022-12-09T13:43:03.337Z,-0.10
2022-12-09T13:45:54.768Z,0.08
2022-12-09T13:48:24.104Z,-0.03
2022-12-09T13:50:59.832Z,-0.19
2022-12-09T13:53:49.043Z,-0.18
2022-12-09T13:56:29.052Z,0.04
2022-12-09T13:59:23.567Z,-0.24
2022-12-09T14:01:56.409Z,-0.24
2022-12-09T14:04:27.842Z,-0.18
2022-12-09T14:07:13.328Z,-0.21
2022-12-09T14:09:54.406Z,-0.33
2022-12-09T14:12:27.287Z,-0.31
2022-12-09T14:14:55.493Z,0.04
2022-12-09T14:17:25.163Z,-0.07
2022-12-09T14:20:00.147Z,-0.03
2022-12-09T14:22:26.690Z,0.08
2022-12-09T14:24:57.963Z,-0.14
2022-12-09T14:27:29.190Z,-0.30
2022-12-09T14:30:04.017Z,-0.32
2022-12-09T14:32:52.347Z,-0.42
2022-12-09T14:35:44.802Z,-0.41
2022-12-09T14:38:23.459Z,-0.41
2022-12-09T14:41:12.524Z,-0.28
2022-12-09T14:44:08.348Z,-0.19
2022-12-09T14:46:37.266Z,-0.34
2022-12-09T14:49:12.489Z,-0.43
2022-12-09T14:51:45.198Z,-0.30
2022-12-09T14:54:19.612Z,-0.39
2022-12-09T14:56:49.584Z,-0.40
2022-12-09T14:59:21.895Z,-0.42
2022-12-09T15:01:51.753Z,-0.46
2022-12-09T15:04:41.358Z,-0.38
2022-12-09T15:07:17.538Z,-0.47
2022-12-09T15:09:50.612Z,-0.41
2022-12-09T15:12:18.598Z,-0.43
2022-12-09T15:14:45.922Z,-0.46
2022-12-09T15:17:25.166Z,-0.48
2022-12-09T15:20:00.145Z,-0.52
2022-12-09T15:22:30.426Z,-0.56
2022-12-09T15:24:57.058Z,-0.55
2022-12-09T15:27:25.854Z,-0.52
2022-12-09T15:29:53.555Z,-0.53
2022-12-09T15:32:28.889Z,-0.50
2022-12-09T15:34:56.202Z,-0.47
2022-12-09T15:37:27.438Z,-0.42
2022-12-09T15:40:04.272Z,-0.40
2022-12-09T15:42:33.262Z,-0.45
2022-12-09T15:45:04.486Z,-0.48
2022-12-09T15:47:39.176Z,-0.44
2022-12-09T15:50:29.036Z,-0.48
2022-12-09T15:53:15.287Z,-0.43
2022-12-09T15:55:50.548Z,-0.53
2022-12-09T15:58:23.445Z,-0.50
2022-12-09T16:00:51.121Z,-0.34
2022-12-09T16:03:32.745Z,-0.38
2022-12-09T16:06:05.047Z,-0.45
2022-12-09T16:08:37.966Z,-0.47
2022-12-09T16:11:04.949Z,-0.55
2022-12-09T16:13:31.705Z,-0.68
2022-12-09T16:16:00.545Z,-0.67
2022-12-09T16:18:32.433Z,-0.61
2022-12-09T16:21:20.927Z,-0.66
2022-12-09T16:23:50.173Z,-0.72
2022-12-09T16:26:24.047Z,-0.65
2022-12-09T16:28:56.127Z,-0.72
2022-12-09T16:31:22.909Z,-0.81
2022-12-09T16:33:50.010Z,-0.71
2022-12-09T16:36:24.519Z,-0.75
2022-12-09T16:39:09.603Z,-0.69
2022-12-09T16:41:55.897Z,-0.68
2022-12-09T16:44:42.766Z,-0.71
2022-12-09T16:47:11.633Z,-0.83
2022-12-09T16:49:40.956Z,-0.85
2022-12-09T16:52:11.481Z,-0.88
2022-12-09T16:54:38.268Z,-0.69
2022-12-09T16:57:04.971Z,-0.71
2022-12-09T16:59:37.589Z,-0.75
2022-12-09T17:02:24.236Z,-0.53
2022-12-09T17:04:51.597Z,-0.58
2022-12-09T17:07:18.288Z,-0.68
2022-12-09T17:09:44.927Z,-0.85
2022-12-09T17:12:11.665Z,-0.93
2022-12-09T17:14:38.293Z,-0.97
2022-12-09T17:17:04.985Z,-0.87
2022-12-09T17:19:31.696Z,-0.88
2022-12-09T17:21:58.400Z,-0.57
2022-12-09T17:24:25.045Z,-0.51
2022-12-09T17:26:51.925Z,-0.53
2022-12-09T17:29:18.519Z,-0.69
2022-12-09T17:31:45.179Z,-0.85
2022-12-09T17:34:11.842Z,-0.82
2022-12-09T17:36:38.525Z,-0.80
2022-12-09T17:39:06.191Z,-0.79
2022-12-09T17:41:33.371Z,-1.00
2022-12-09T17:44:00.880Z,-1.01
2022-12-09T17:46:27.687Z,-1.10
2022-12-09T17:48:54.300Z,-1.04
2022-12-09T17:51:21.051Z,-1.00
2022-12-09T17:53:48.280Z,-0.87
2022-12-09T17:56:21.258Z,-0.95
2022-12-09T17:58:53.957Z,-0.89
2022-12-09T18:01:22.646Z,-1.07
2022-12-09T18:03:59.410Z,-1.15
2022-12-09T18:06:31.693Z,-0.90
2022-12-09T18:08:58.351Z,-1.00
2022-12-09T18:11:24.912Z,-0.94
2022-12-09T18:13:51.673Z,-0.93
2022-12-09T18:16:18.512Z,-0.79
2022-12-09T18:18:45.771Z,-0.83
2022-12-09T18:21:15.999Z,-0.98
2022-12-09T18:23:43.208Z,-0.93
2022-12-09T18:26:14.747Z,-1.06
2022-12-09T18:28:41.776Z,-1.25
2022-12-09T18:31:10.196Z,-1.30
2022-12-09T18:33:37.797Z,-1.32
2022-12-09T18:36:10.344Z,-1.35
2022-12-09T18:38:37.837Z,-1.34
2022-12-09T18:41:04.667Z,-1.34
2022-12-09T18:43:34.195Z,-1.32
2022-12-09T18:46:25.122Z,-1.34
2022-12-09T18:49:13.512Z,-1.30
2022-12-09T18:51:41.418Z,-1.29
2022-12-09T18:54:08.487Z,-0.96
2022-12-09T18:56:36.113Z,-1.10
2022-12-09T18:59:07.467Z,-1.15
2022-12-09T19:01:41.027Z,-1.27
2022-12-09T19:04:19.421Z,-1.31
2022-12-09T19:06:47.540Z,-1.25
2022-12-09T19:09:17.147Z,-1.24
2022-12-09T19:11:44.952Z,-1.27
2022-12-09T19:14:12.228Z,-1.31
2022-12-09T19:16:38.854Z,-1.28
2022-12-09T19:19:09.461Z,-1.41
2022-12-09T19:21:37.239Z,-1.24
2022-12-09T19:24:03.973Z,-1.45
2022-12-09T19:26:32.558Z,-1.40
2022-12-09T19:29:01.633Z,-1.25
2022-12-09T19:31:30.707Z,-1.40
2022-12-09T19:34:03.798Z,-1.32
2022-12-09T19:36:31.175Z,-1.24
2022-12-09T19:38:58.364Z,-1.39
2022-12-09T19:41:27.791Z,-1.42
2022-12-09T19:43:55.587Z,-1.32
2022-12-09T19:46:22.722Z,-1.39
2022-12-09T19:48:49.629Z,-1.43
2022-12-09T19:51:17.992Z,-1.50
2022-12-09T19:53:44.669Z,-1.42
2022-12-09T19:56:16.704Z,-1.37
2022-12-09T19:58:44.153Z,-1.42
2022-12-09T20:01:13.148Z,-1.42
2022-12-09T20:03:41.146Z,-1.33
2022-12-09T20:06:10.174Z,-1.36
2022-12-09T20:08:37.583Z,-1.44
2022-12-09T20:11:05.587Z,-1.47
2022-12-09T20:13:32.468Z,-1.42
2022-12-09T20:16:06.277Z,-1.17
2022-12-09T20:18:33.005Z,-1.42
2022-12-09T20:21:09.260Z,-1.45
2022-12-09T20:23:37.144Z,-1.48
2022-12-09T20:26:14.256Z,-1.64
2022-12-09T20:28:42.217Z,-1.63
2022-12-09T20:31:16.940Z,-1.48
2022-12-09T20:33:43.823Z,-1.46
2022-12-09T20:36:13.139Z,-1.52
2022-12-09T20:38:40.426Z,-1.64
2022-12-09T20:41:09.956Z,-1.66
2022-12-09T20:43:39.597Z,-1.83
2022-12-09T20:46:14.966Z,-1.73
2022-12-09T20:48:42.422Z,-1.76
2022-12-09T20:51:21.611Z,-1.76
2022-12-09T20:53:48.743Z,-1.61
2022-12-09T20:56:16.317Z,-1.68
2022-12-09T20:58:43.794Z,-1.71
2022-12-09T21:01:16.103Z,-1.77
2022-12-09T21:03:43.500Z,-1.65
2022-12-09T21:06:11.047Z,-1.46
2022-12-09T21:08:37.788Z,-1.63
2022-12-09T21:11:06.288Z,-1.70
2022-12-09T21:13:37.122Z,-1.66
2022-12-09T21:16:13.409Z,-1.75
2022-12-09T21:18:40.100Z,-1.71
2022-12-09T21:21:06.706Z,-1.78
2022-12-09T21:23:35.406Z,-1.75
2022-12-09T21:26:06.936Z,-1.69
2022-12-09T21:28:34.526Z,-1.77
2022-12-09T21:31:21.882Z,-1.55
2022-12-09T21:33:49.711Z,-1.74
2022-12-09T21:36:23.788Z,-1.68
2022-12-09T21:38:50.884Z,-1.62
2022-12-09T21:41:23.199Z,-1.74
2022-12-09T21:43:49.964Z,-1.80
2022-12-09T21:46:19.887Z,-1.67
2022-12-09T21:48:52.034Z,-1.77
2022-12-09T21:51:19.928Z,-1.77
2022-12-09T21:53:47.091Z,-1.80
2022-12-09T21:56:25.878Z,-1.84
2022-12-09T21:58:55.310Z,-1.76
2022-12-09T22:01:26.009Z,-1.84
2022-12-09T22:03:53.848Z,-1.85
2022-12-09T22:06:20.504Z,-1.94
2022-12-09T22:08:47.281Z,-1.99
2022-12-09T22:11:22.837Z,-1.97
2022-12-09T22:13:49.819Z,-1.95
2022-12-09T22:16:19.779Z,-1.96
2022-12-09T22:18:46.849Z,-1.76
2022-12-09T22:21:24.617Z,-1.90
2022-12-09T22:23:54.003Z,-1.88
2022-12-09T22:26:21.079Z,-1.95
2022-12-09T22:28:47.764Z,-1.58
2022-12-09T22:31:26.134Z,-1.91
2022-12-09T22:33:54.843Z,-1.66
2022-12-09T22:36:22.349Z,-1.94
2022-12-09T22:38:49.155Z,-2.03
2022-12-09T22:41:21.409Z,-2.01
2022-12-09T22:43:49.042Z,-2.06
2022-12-09T22:46:18.364Z,-1.97
2022-12-09T22:48:45.530Z,-1.77
2022-12-09T22:51:21.727Z,-1.76
2022-12-09T22:53:50.101Z,-2.02
2022-12-09T22:56:16.873Z,-2.12
2022-12-09T22:58:43.533Z,-1.72
2022-12-09T23:01:12.000Z,-2.01
2022-12-09T23:03:39.117Z,-2.09
2022-12-09T23:06:06.522Z,-2.04
2022-12-09T23:08:33.315Z,-1.93
2022-12-09T23:11:03.038Z,-2.21
2022-12-09T23:13:30.643Z,-2.34
2022-12-09T23:16:01.220Z,-2.38
2022-12-09T23:18:29.792Z,-2.37
2022-12-09T23:20:56.418Z,-2.40
2022-12-09T23:23:23.034Z,-2.44
2022-12-09T23:25:49.612Z,-2.37
2022-12-09T23:28:16.318Z,-2.45
2022-12-09T23:30:43.012Z,-2.53
2022-12-09T23:33:09.845Z,-2.67
2022-12-09T23:35:38.633Z,-2.72
2022-12-09T23:38:05.234Z,-2.60
2022-12-09T23:40:31.843Z,-2.81
2022-12-09T23:42:58.546Z,-2.85
2022-12-09T23:45:25.144Z,-2.70
2022-12-09T23:47:51.771Z,-2.76
2022-12-09T23:50:18.705Z,-2.52
2022-12-09T23:52:45.344Z,-2.66
2022-12-09T23:55:12.068Z,-2.66
2022-12-09T23:57:38.673Z,-2.68
